Time;durP1;ratioP1;P1;durP2;ratioP2;P2;SDS_P1;SDS_P2;PMS_P1;PMS_P2;Temp;Humidity;BMP_temperature;BMP_pressure;BME280_temperature;BME280_humidity;BME280_pressure;Samples;Min_cycle;Max_cycle;Signal;HPM_P1;HPM_P2
2022/03/20 00:00:30;;;;;;;6.50;2.60;;;8.00;1.00;;;;;;6187571;23;20209;-84
2022/03/20 00:02:55;;;;;;;5.37;2.97;;;8.00;1.00;;;;;;6186927;23;20394;-82
2022/03/20 00:05:22;;;;;;;8.17;3.43;;;8.00;1.00;;;;;;6187375;23;20200;-83
2022/03/20 00:07:47;;;;;;;6.67;3.37;;;8.10;1.00;;;;;;6187260;23;20216;-83
2022/03/20 00:10:14;;;;;;;7.63;3.37;;;8.00;1.00;;;;;;6186478;23;20189;-82
2022/03/20 00:12:41;;;;;;;7.10;2.93;;;7.90;3.00;;;;;;6186840;23;20141;-82
2022/03/20 00:15:08;;;;;;;6.33;3.17;;;8.00;15.70;;;;;;6187349;23;20138;-81
2022/03/20 00:17:34;;;;;;;6.47;3.40;;;7.90;24.10;;;;;;6159871;23;20527;-82
2022/03/20 00:20:01;;;;;;;5.30;3.10;;;7.90;40.30;;;;;;6187214;23;20634;-82
2022/03/20 00:22:27;;;;;;;7.30;3.20;;;7.90;41.90;;;;;;6186461;23;20138;-82
2022/03/20 00:24:53;;;;;;;5.23;3.20;;;7.80;62.50;;;;;;6186784;23;20134;-83
2022/03/20 00:27:18;;;;;;;8.43;3.20;;;7.90;99.90;;;;;;6186857;23;20142;-81
2022/03/20 00:29:44;;;;;;;6.00;3.43;;;7.80;99.90;;;;;;6187681;23;20258;-82
2022/03/20 00:32:12;;;;;;;7.77;3.60;;;7.90;99.90;;;;;;6187009;23;20134;-82
2022/03/20 00:34:39;;;;;;;6.03;3.27;;;7.80;99.90;;;;;;6187186;23;20173;-81
2022/03/20 00:37:06;;;;;;;6.77;4.00;;;7.70;99.90;;;;;;6186182;23;20165;-81
2022/03/20 00:39:32;;;;;;;7.03;4.00;;;7.70;99.90;;;;;;6198776;23;20140;-78
2022/03/20 00:41:58;;;;;;;6.53;3.57;;;7.60;99.90;;;;;;6203705;23;20157;-82
2022/03/20 00:44:24;;;;;;;9.10;4.63;;;7.60;99.90;;;;;;6190575;23;20134;-81
2022/03/20 00:46:50;;;;;;;7.53;4.13;;;7.60;99.90;;;;;;6186272;23;20138;-82
2022/03/20 00:49:16;;;;;;;7.70;4.57;;;7.60;99.90;;;;;;6186593;23;20157;-83
2022/03/20 00:51:43;;;;;;;8.07;4.37;;;7.50;99.90;;;;;;6160073;23;20168;-78
2022/03/20 00:54:10;;;;;;;6.67;4.47;;;7.50;99.90;;;;;;6160152;23;20484;-78
2022/03/20 00:56:36;;;;;;;8.33;4.83;;;7.50;99.90;;;;;;6186426;23;20150;-83
2022/03/20 00:59:03;;;;;;;10.03;5.10;;;7.50;99.90;;;;;;6186416;23;20398;-83
2022/03/20 01:01:29;;;;;;;9.10;5.60;;;7.50;99.90;;;;;;6186164;23;20142;-83
2022/03/20 01:03:55;;;;;;;9.87;5.10;;;7.50;99.90;;;;;;6186865;23;20138;-81
2022/03/20 01:06:22;;;;;;;9.37;5.87;;;7.40;99.90;;;;;;6187700;23;20138;-82
2022/03/20 01:08:52;;;;;;;10.33;6.03;;;7.40;99.90;;;;;;6187335;23;20169;-82
2022/03/20 01:11:19;;;;;;;8.60;5.90;;;7.40;99.90;;;;;;6187058;23;20130;-81
2022/03/20 01:13:45;;;;;;;11.57;6.30;;;7.30;99.90;;;;;;6192476;23;20138;-80
2022/03/20 01:16:11;;;;;;;12.13;6.67;;;7.40;1.00;;;;;;6179241;23;20149;-82
2022/03/20 01:18:37;;;;;;;9.30;6.10;;;7.20;1.00;;;;;;6198888;23;20238;-82
2022/03/20 01:21:13;;;;;;;7.87;6.27;;;7.30;1.00;;;;;;6202886;23;20146;-82
2022/03/20 01:23:39;;;;;;;9.20;6.33;;;7.20;1.00;;;;;;6204584;23;20273;-82
2022/03/20 01:26:06;;;;;;;10.07;6.40;;;7.20;1.00;;;;;;6207884;23;20173;-81
2022/03/20 01:28:31;;;;;;;9.50;5.57;;;7.20;1.00;;;;;;6209338;23;20145;-75
2022/03/20 01:30:57;;;;;;;9.80;6.40;;;7.20;1.00;;;;;;6208477;23;20134;-80
2022/03/20 01:33:23;;;;;;;10.30;6.23;;;7.10;1.00;;;;;;6192248;23;20145;-82
2022/03/20 01:35:49;;;;;;;9.27;6.10;;;7.10;1.00;;;;;;6186801;23;20213;-84
2022/03/20 01:38:19;;;;;;;9.83;6.60;;;7.10;1.00;;;;;;6185968;23;20180;-80
2022/03/20 01:40:46;;;;;;;10.43;6.20;;;7.10;1.00;;;;;;6186467;23;20134;-82
2022/03/20 01:43:12;;;;;;;9.27;6.10;;;7.10;1.00;;;;;;6185929;23;20149;-81
2022/03/20 01:45:38;;;;;;;10.17;5.90;;;7.00;1.00;;;;;;6185588;23;20526;-81
2022/03/20 01:48:04;;;;;;;9.60;5.80;;;6.80;1.00;;;;;;6185920;23;20142;-78
2022/03/20 01:50:33;;;;;;;9.50;5.63;;;6.80;24.30;;;;;;6186395;23;20153;-79
2022/03/20 01:53:00;;;;;;;10.87;6.07;;;6.80;53.80;;;;;;6186026;23;20209;-81
2022/03/20 01:55:28;;;;;;;9.67;5.90;;;6.70;99.90;;;;;;6186353;23;20184;-81
2022/03/20 01:57:56;;;;;;;8.93;5.70;;;6.70;99.90;;;;;;6159083;23;20686;-81
2022/03/20 02:00:24;;;;;;;10.87;6.67;;;6.70;99.90;;;;;;6185068;23;20216;-82
2022/03/20 02:02:51;;;;;;;13.00;7.50;;;6.70;99.90;;;;;;6186469;23;20575;-81
2022/03/20 02:05:17;;;;;;;9.90;6.60;;;6.70;99.90;;;;;;6185835;23;20162;-80
2022/03/20 02:07:44;;;;;;;12.17;6.70;;;6.70;99.90;;;;;;6185709;23;20168;-83
2022/03/20 02:10:11;;;;;;;11.17;6.23;;;6.70;99.90;;;;;;6185716;23;20220;-79
2022/03/20 02:12:38;;;;;;;9.43;6.60;;;6.60;99.90;;;;;;6185995;23;20142;-82
2022/03/20 02:15:06;;;;;;;9.40;6.13;;;6.70;99.90;;;;;;6185481;23;20192;-82
2022/03/20 02:17:34;;;;;;;10.20;6.00;;;6.50;99.90;;;;;;6185688;23;20178;-81
2022/03/20 02:20:03;;;;;;;10.60;6.47;;;6.50;99.90;;;;;;6186049;23;20209;-81
2022/03/20 02:22:29;;;;;;;9.50;5.97;;;6.60;99.90;;;;;;6185849;23;20138;-82
2022/03/20 02:24:55;;;;;;;8.57;5.87;;;6.50;99.90;;;;;;6185678;23;20134;-81
2022/03/20 02:27:27;;;;;;;9.13;6.33;;;6.40;99.90;;;;;;6185482;23;20141;-81
2022/03/20 02:29:54;;;;;;;9.77;5.70;;;6.40;99.90;;;;;;6185180;23;20134;-82
2022/03/20 02:32:27;;;;;;;9.30;5.73;;;6.40;99.90;;;;;;6185565;23;20146;-81
2022/03/20 02:34:54;;;;;;;11.13;6.03;;;6.40;99.90;;;;;;6185787;23;20134;-81
2022/03/20 02:37:22;;;;;;;9.80;6.40;;;6.40;99.90;;;;;;6159241;23;20632;-80
2022/03/20 02:39:48;;;;;;;11.43;6.40;;;6.30;99.90;;;;;;6191860;23;20142;-81
2022/03/20 02:42:15;;;;;;;8.67;6.60;;;6.40;99.90;;;;;;6201465;23;20138;-79
2022/03/20 02:44:55;;;;;;;11.13;6.87;;;6.40;99.90;;;;;;6204250;23;20142;-80
2022/03/20 02:47:29;;;;;;;11.03;7.43;;;6.30;25.00;;;;;;6188540;23;20134;-79
2022/03/20 02:49:59;;;;;;;13.03;7.27;;;6.30;99.90;;;;;;6186999;23;20579;-77
2022/03/20 02:52:46;;;;;;;13.60;7.83;;;6.30;99.90;;;;;;6186591;23;20126;-79
2022/03/20 02:55:14;;;;;;;10.50;7.33;;;6.30;99.90;;;;;;6185612;23;20217;-81
2022/03/20 02:57:40;;;;;;;10.80;6.57;;;6.20;90.40;;;;;;6185095;23;20205;-80
2022/03/20 03:00:08;;;;;;;12.53;7.37;;;6.10;99.90;;;;;;6185412;23;20575;-80
2022/03/20 03:02:43;;;;;;;12.17;7.77;;;6.00;99.90;;;;;;6187268;23;20146;-81
2022/03/20 03:05:16;;;;;;;10.47;6.90;;;6.00;99.90;;;;;;6187271;23;20169;-81
2022/03/20 03:13:15;;;;;;;10.63;7.77;;;6.00;1.00;;;;;;6189082;23;20989;-80
2022/03/20 03:15:41;;;;;;;10.60;7.77;;;6.00;1.00;;;;;;6187877;23;20134;-81
2022/03/20 03:18:07;;;;;;;11.10;7.77;;;6.00;1.00;;;;;;6187428;23;20188;-80
2022/03/20 03:20:33;;;;;;;10.67;8.30;;;6.00;1.00;;;;;;6188221;23;20232;-81
2022/03/20 03:22:59;;;;;;;9.60;7.23;;;6.00;1.00;;;;;;6214336;22;20133;-77
2022/03/20 03:25:26;;;;;;;11.53;7.60;;;5.90;1.00;;;;;;6196841;23;20134;-80
2022/03/20 03:27:54;;;;;;;10.73;7.33;;;5.80;1.00;;;;;;6188386;23;20142;-83
2022/03/20 03:30:20;;;;;;;11.40;7.43;;;5.90;1.00;;;;;;6187192;23;20482;-80
2022/03/20 03:32:46;;;;;;;13.07;7.57;;;5.90;6.90;;;;;;6187057;23;20138;-80
2022/03/20 03:37:59;;;;;;;11.80;7.83;;;5.80;16.50;;;;;;6213906;22;20196;-78
2022/03/20 03:40:25;;;;;;;9.47;7.07;;;5.80;99.90;;;;;;6196413;23;20560;-81
2022/03/20 03:42:58;;;;;;;12.03;7.23;;;5.80;99.90;;;;;;6188339;23;20177;-81
2022/03/20 03:45:24;;;;;;;9.47;6.77;;;5.70;99.90;;;;;;6186856;23;20141;-80
2022/03/20 03:47:51;;;;;;;12.00;7.03;;;5.80;99.90;;;;;;6186912;23;20196;-79
2022/03/20 03:50:19;;;;;;;10.40;6.83;;;5.80;99.90;;;;;;6186583;23;20164;-81
2022/03/20 03:52:44;;;;;;;11.10;6.67;;;5.70;99.90;;;;;;6186779;23;20162;-83
2022/03/20 03:55:10;;;;;;;11.90;6.47;;;5.70;1.00;;;;;;6186104;23;20582;-81
2022/03/20 03:57:36;;;;;;;11.37;6.50;;;5.60;1.00;;;;;;6186836;23;20209;-82
2022/03/20 04:00:03;;;;;;;10.73;6.53;;;5.60;99.90;;;;;;6186897;23;20567;-80
2022/03/20 04:02:29;;;;;;;9.50;6.83;;;5.60;99.90;;;;;;6160903;23;20149;-81
2022/03/20 04:04:55;;;;;;;12.67;7.33;;;5.60;99.90;;;;;;6166635;23;20177;-78
2022/03/20 04:07:21;;;;;;;11.87;7.83;;;5.60;99.90;;;;;;6207461;23;20141;-76
2022/03/20 04:09:47;;;;;;;11.83;7.50;;;5.60;1.00;;;;;;6178644;23;20479;-83
2022/03/20 04:12:13;;;;;;;10.23;7.43;;;5.60;1.00;;;;;;6203993;23;20189;-82
2022/03/20 04:14:43;;;;;;;9.80;7.03;;;5.60;1.00;;;;;;6192111;23;20293;-82
2022/03/20 04:17:14;;;;;;;10.27;7.33;;;5.60;99.90;;;;;;6186979;23;20150;-81
2022/03/20 04:19:41;;;;;;;11.93;7.80;;;5.50;1.00;;;;;;6186760;23;20164;-81
2022/03/20 04:22:08;;;;;;;22.30;8.53;;;5.50;1.00;;;;;;6186640;23;20142;-82
2022/03/20 04:24:36;;;;;;;12.60;7.57;;;5.50;1.00;;;;;;6186368;23;20198;-79
2022/03/20 04:27:02;;;;;;;12.20;8.23;;;5.40;1.00;;;;;;6186284;23;20204;-82
2022/03/20 04:29:28;;;;;;;10.77;8.03;;;5.40;64.60;;;;;;6186888;23;20661;-80
2022/03/20 04:31:55;;;;;;;11.17;7.93;;;5.50;99.90;;;;;;6187716;23;20154;-81
2022/03/20 04:34:23;;;;;;;11.93;7.80;;;5.40;1.00;;;;;;6186372;23;20200;-81
2022/03/20 04:36:50;;;;;;;13.50;9.13;;;5.30;99.90;;;;;;6186480;23;20134;-82
2022/03/20 04:39:16;;;;;;;13.00;9.60;;;5.30;99.90;;;;;;6159621;23;20656;-82
2022/03/20 04:41:42;;;;;;;13.67;9.63;;;5.30;99.90;;;;;;6192847;23;20138;-83
2022/03/20 04:44:12;;;;;;;13.47;9.33;;;5.30;99.90;;;;;;6197727;23;20196;-81
2022/03/20 04:46:38;;;;;;;14.47;9.77;;;5.50;34.40;;;;;;6192371;23;20136;-81
2022/03/20 05:00:00;;;;;;;16.00;11.37;;;5.50;1.00;;;;;;6186005;23;20165;-81
2022/03/20 05:02:26;;;;;;;17.00;12.17;;;5.50;99.90;;;;;;6185803;23;20487;-82
2022/03/20 05:04:52;;;;;;;18.40;12.30;;;5.50;99.90;;;;;;6186071;23;20168;-81
2022/03/20 05:07:18;;;;;;;17.43;12.63;;;5.50;54.40;;;;;;6185240;23;20677;-81
2022/03/20 05:15:12;;;;;;;18.37;12.63;;;5.60;99.90;;;;;;6186505;23;20152;-82
2022/03/20 05:17:38;;;;;;;20.33;13.87;;;5.60;99.90;;;;;;6186072;23;20173;-81
2022/03/20 05:20:04;;;;;;;23.30;14.73;;;5.50;99.90;;;;;;6187126;23;20142;-79
2022/03/20 05:22:34;;;;;;;21.50;16.03;;;5.50;1.00;;;;;;6187200;23;20142;-81
2022/03/20 05:25:02;;;;;;;21.83;15.20;;;5.40;99.90;;;;;;6188040;23;20141;-82
2022/03/20 05:27:28;;;;;;;20.40;15.90;;;5.30;1.00;;;;;;6202332;23;20149;-81
2022/03/20 05:29:53;;;;;;;21.87;15.97;;;5.30;89.90;;;;;;6208869;23;20150;-82
2022/03/20 05:32:20;;;;;;;20.97;16.20;;;5.30;75.10;;;;;;6207024;23;20193;-81
2022/03/20 05:34:47;;;;;;;23.00;16.10;;;5.30;99.90;;;;;;6179426;23;20173;-82
2022/03/20 05:37:13;;;;;;;21.53;16.87;;;5.40;99.90;;;;;;6199527;23;20153;-76
2022/03/20 05:39:42;;;;;;;25.17;17.80;;;5.50;1.00;;;;;;6199900;23;20208;-75
2022/03/20 05:42:14;;;;;;;21.67;16.97;;;5.50;99.90;;;;;;6209345;23;20126;-76
2022/03/20 05:44:46;;;;;;;22.83;17.40;;;5.60;1.00;;;;;;6201916;23;20217;-80
2022/03/20 05:47:13;;;;;;;20.20;16.93;;;5.60;1.00;;;;;;6188293;23;20180;-81
2022/03/20 05:49:39;;;;;;;20.43;16.37;;;5.60;1.00;;;;;;6186494;23;20138;-83
2022/03/20 05:52:06;;;;;;;21.80;16.60;;;5.70;99.90;;;;;;6185506;23;20134;-81
2022/03/20 05:54:32;;;;;;;19.97;15.90;;;5.60;1.00;;;;;;6186183;23;20439;-82
2022/03/20 05:59:42;;;;;;;23.03;17.83;;;5.70;1.00;;;;;;6186174;23;20157;-81
2022/03/20 06:02:11;;;;;;;19.93;16.57;;;5.80;1.00;;;;;;6187154;23;20479;-81
2022/03/20 06:04:38;;;;;;;19.37;15.60;;;5.80;1.00;;;;;;6186691;23;20166;-81
2022/03/20 06:07:04;;;;;;;19.50;16.00;;;5.90;1.00;;;;;;6186562;23;20141;-80
2022/03/20 06:09:30;;;;;;;23.97;16.53;;;6.00;34.10;;;;;;6186480;23;20296;-80
2022/03/20 06:11:56;;;;;;;19.17;15.67;;;5.90;99.90;;;;;;6189792;23;20138;-83
2022/03/20 06:14:22;;;;;;;20.47;16.40;;;5.80;99.90;;;;;;6164819;23;20237;-77
2022/03/20 06:16:48;;;;;;;20.17;15.13;;;5.70;1.00;;;;;;6166004;23;20154;-77
2022/03/20 06:19:16;;;;;;;21.53;16.73;;;5.70;1.00;;;;;;6187461;23;20180;-80
2022/03/20 06:21:43;;;;;;;21.80;16.37;;;5.70;1.00;;;;;;6186814;23;20130;-81
2022/03/20 06:24:09;;;;;;;20.63;16.30;;;5.70;99.90;;;;;;6160500;23;20225;-79
2022/03/20 06:26:36;;;;;;;21.57;16.37;;;5.60;99.90;;;;;;6189295;23;20130;-82
2022/03/20 06:29:05;;;;;;;19.13;16.07;;;5.60;99.90;;;;;;6191809;23;20138;-81
2022/03/20 06:31:31;;;;;;;19.93;16.03;;;5.70;1.00;;;;;;6192846;23;20165;-81
2022/03/20 06:33:59;;;;;;;24.63;18.13;;;5.80;1.00;;;;;;6198260;23;20202;-80
2022/03/20 06:36:25;;;;;;;21.40;17.80;;;5.70;53.00;;;;;;6178618;23;20150;-81
2022/03/20 06:38:51;;;;;;;22.37;17.13;;;5.60;1.00;;;;;;6201607;23;20619;-81
2022/03/20 06:41:18;;;;;;;19.77;15.80;;;5.60;1.00;;;;;;6202739;23;20197;-82
2022/03/20 06:43:44;;;;;;;23.73;17.67;;;5.50;1.00;;;;;;6207983;23;20142;-79
2022/03/20 06:46:10;;;;;;;24.93;17.97;;;5.40;1.00;;;;;;6183423;23;20146;-80
2022/03/20 06:48:37;;;;;;;25.77;19.13;;;5.40;78.60;;;;;;6210681;23;20185;-80
2022/03/20 06:51:08;;;;;;;22.43;18.33;;;5.50;99.90;;;;;;6206860;23;20152;-81
2022/03/20 06:53:34;;;;;;;22.13;16.53;;;5.60;99.90;;;;;;6207616;23;20209;-82
2022/03/20 06:56:00;;;;;;;20.30;15.80;;;5.50;1.00;;;;;;6205586;23;20153;-81
2022/03/20 06:58:28;;;;;;;21.10;16.53;;;5.50;1.00;;;;;;6169585;23;20174;-80
2022/03/20 07:00:54;;;;;;;21.97;17.53;;;5.40;34.70;;;;;;6195111;23;20157;-82
2022/03/20 07:03:20;;;;;;;27.83;20.40;;;5.30;99.90;;;;;;6170803;23;20154;-81
2022/03/20 07:05:47;;;;;;;24.33;19.10;;;5.10;99.90;;;;;;6197489;23;20157;-82
2022/03/20 07:08:13;;;;;;;22.37;16.27;;;5.00;99.90;;;;;;6194043;23;20142;-81
2022/03/20 07:10:39;;;;;;;26.00;19.23;;;5.00;99.90;;;;;;6187878;23;20141;-80
2022/03/20 07:15:58;;;;;;;26.70;19.20;;;4.80;1.00;;;;;;6189994;23;20149;-81
2022/03/20 07:18:25;;;;;;;26.47;20.83;;;4.60;1.00;;;;;;6168034;23;20567;-82
2022/03/20 07:20:50;;;;;;;26.20;19.50;;;4.50;1.00;;;;;;6192372;23;20134;-82
2022/03/20 07:23:17;;;;;;;24.37;18.97;;;4.40;1.00;;;;;;6196411;23;20210;-81
2022/03/20 07:31:15;;;;;;;29.43;22.57;;;4.40;1.00;;;;;;6208183;23;20168;-81
2022/03/20 07:33:49;;;;;;;30.23;23.23;;;4.50;1.00;;;;;;6172730;23;20149;-81
2022/03/20 07:36:15;;;;;;;28.03;23.20;;;4.60;1.00;;;;;;6189894;23;20217;-81
2022/03/20 07:38:41;;;;;;;26.63;22.17;;;4.50;1.00;;;;;;6189590;23;20665;-82
2022/03/20 07:41:06;;;;;;;33.47;24.90;;;4.50;1.00;;;;;;6190566;23;20158;-82
2022/03/20 07:43:32;;;;;;;33.03;25.20;;;4.50;1.00;;;;;;6204341;23;20149;-80
2022/03/20 07:45:58;;;;;;;31.97;26.20;;;4.40;1.00;;;;;;6204824;23;20134;-82
2022/03/20 07:48:24;;;;;;;31.87;26.13;;;4.30;9.70;;;;;;6163134;23;20150;-82
2022/03/20 07:50:51;;;;;;;30.27;23.60;;;4.40;10.90;;;;;;6187538;23;20165;-83
2022/03/20 07:53:17;;;;;;;34.83;25.87;;;4.40;8.80;;;;;;6188095;23;20187;-82
2022/03/20 07:55:47;;;;;;;32.37;26.53;;;4.40;9.70;;;;;;6188383;23;20185;-84
2022/03/20 07:58:17;;;;;;;35.67;29.53;;;4.30;13.60;;;;;;6188256;23;20170;-83
2022/03/20 08:00:42;;;;;;;36.80;27.60;;;4.30;17.90;;;;;;6187088;23;20613;-82
2022/03/20 08:03:08;;;;;;;37.47;29.07;;;4.30;20.30;;;;;;6187053;23;20142;-83
2022/03/20 08:05:34;;;;;;;37.97;30.07;;;4.20;25.60;;;;;;6186348;23;20161;-82
2022/03/20 08:08:02;;;;;;;36.10;29.83;;;4.30;28.30;;;;;;6160719;23;20253;-81
2022/03/20 08:10:28;;;;;;;37.03;29.60;;;4.40;32.50;;;;;;6186650;23;20142;-83
2022/03/20 08:12:54;;;;;;;36.23;28.97;;;4.40;33.30;;;;;;6186949;23;20219;-83
2022/03/20 08:15:20;;;;;;;37.70;30.43;;;4.30;32.50;;;;;;6186767;23;20169;-81
2022/03/20 08:17:47;;;;;;;38.53;29.70;;;4.30;39.30;;;;;;6186595;23;20177;-83
2022/03/20 08:20:13;;;;;;;38.87;30.77;;;4.30;41.50;;;;;;6187020;23;20142;-82
2022/03/20 08:22:40;;;;;;;38.33;31.07;;;4.40;42.80;;;;;;6186616;23;20503;-82
2022/03/20 08:25:07;;;;;;;39.83;32.60;;;4.50;38.50;;;;;;6187811;23;20144;-83
2022/03/20 08:27:44;;;;;;;39.57;30.77;;;4.60;35.60;;;;;;6188807;23;20189;-83
2022/03/20 08:30:12;;;;;;;37.27;31.13;;;4.50;31.90;;;;;;6186819;23;20153;-82
2022/03/20 08:32:38;;;;;;;40.43;31.43;;;4.40;37.80;;;;;;6160692;23;20490;-83
2022/03/20 08:35:05;;;;;;;39.90;31.60;;;4.40;36.50;;;;;;6172002;23;20148;-82
2022/03/20 08:37:32;;;;;;;39.33;31.20;;;4.40;38.00;;;;;;6198065;23;20170;-82
2022/03/20 08:39:58;;;;;;;41.37;32.40;;;4.40;37.40;;;;;;6193097;23;20567;-83
2022/03/20 08:42:25;;;;;;;38.00;32.03;;;4.50;38.00;;;;;;6194435;23;20141;-81
2022/03/20 08:44:52;;;;;;;37.03;30.60;;;4.60;36.70;;;;;;6203917;23;20142;-82
2022/03/20 08:47:19;;;;;;;38.53;30.57;;;4.80;32.90;;;;;;6201905;23;20574;-81
2022/03/20 08:49:45;;;;;;;36.83;30.40;;;4.80;30.70;;;;;;6166906;23;20161;-82
2022/03/20 08:52:11;;;;;;;34.80;29.67;;;5.10;29.90;;;;;;6162139;23;20431;-81
2022/03/20 08:54:37;;;;;;;34.57;27.30;;;5.20;24.70;;;;;;6192192;23;20180;-82
2022/03/20 08:57:06;;;;;;;34.67;28.40;;;4.90;17.70;;;;;;6193859;23;20138;-82
2022/03/20 08:59:32;;;;;;;34.80;28.00;;;4.90;25.30;;;;;;6197536;23;20145;-82
2022/03/20 09:01:58;;;;;;;37.67;29.60;;;4.90;24.20;;;;;;6198687;23;20142;-82
2022/03/20 09:04:23;;;;;;;38.60;28.90;;;4.80;25.10;;;;;;6189267;23;20478;-80
2022/03/20 09:06:50;;;;;;;36.50;29.90;;;5.00;30.60;;;;;;6189278;23;20144;-81
2022/03/20 09:09:16;;;;;;;35.53;28.27;;;5.10;28.10;;;;;;6189811;23;20161;-81
2022/03/20 09:11:44;;;;;;;34.50;29.10;;;5.30;22.90;;;;;;6198650;23;20134;-82
2022/03/20 09:14:10;;;;;;;33.30;27.57;;;5.50;15.50;;;;;;6203574;23;20195;-82
2022/03/20 09:19:20;;;;;;;34.20;28.43;;;5.60;1.00;;;;;;6206980;23;20215;-78
2022/03/20 09:21:46;;;;;;;31.17;27.23;;;5.60;1.00;;;;;;6205304;23;20166;-82
2022/03/20 09:24:15;;;;;;;31.83;26.00;;;5.80;1.00;;;;;;6193244;23;20466;-81
2022/03/20 09:26:43;;;;;;;31.67;26.70;;;5.90;1.00;;;;;;6187805;23;20178;-80
2022/03/20 09:29:10;;;;;;;32.80;26.60;;;5.80;1.00;;;;;;6180553;23;20145;-81
2022/03/20 09:31:36;;;;;;;32.93;26.90;;;5.80;1.00;;;;;;6177758;23;20192;-83
2022/03/20 09:34:05;;;;;;;33.23;25.87;;;5.60;1.00;;;;;;6190719;23;20141;-83
2022/03/20 09:36:31;;;;;;;34.83;27.87;;;5.50;1.00;;;;;;6193725;23;20144;-78
2022/03/20 09:38:56;;;;;;;33.97;27.53;;;5.70;1.00;;;;;;6196427;23;20169;-82
2022/03/20 09:41:33;;;;;;;36.20;28.20;;;5.90;1.00;;;;;;6196970;23;20134;-82
2022/03/20 09:44:04;;;;;;;28.50;23.87;;;6.10;1.00;;;;;;6210452;23;20137;-78
2022/03/20 09:46:31;;;;;;;30.77;23.30;;;6.20;1.00;;;;;;6194868;23;20138;-82
2022/03/20 09:49:03;;;;;;;31.93;23.90;;;6.30;1.00;;;;;;6195786;23;20138;-82
2022/03/20 09:51:29;;;;;;;28.90;23.40;;;6.40;99.90;;;;;;6199736;23;20159;-83
2022/03/20 09:53:57;;;;;;;28.10;23.77;;;6.30;99.90;;;;;;6202069;23;20142;-82
2022/03/20 09:56:23;;;;;;;26.97;22.63;;;6.40;67.20;;;;;;6171859;23;20144;-83
2022/03/20 09:58:49;;;;;;;27.07;22.57;;;6.50;99.90;;;;;;6162433;23;20182;-82
2022/03/20 10:01:16;;;;;;;26.43;21.70;;;6.50;1.00;;;;;;6188820;23;20208;-79
2022/03/20 10:03:42;;;;;;;28.53;23.10;;;6.50;99.90;;;;;;6186700;23;20138;-83
2022/03/20 10:06:17;;;;;;;29.57;24.03;;;6.70;1.00;;;;;;6186698;23;20169;-81
2022/03/20 10:09:00;;;;;;;28.70;24.23;;;6.90;99.90;;;;;;6185793;23;20161;-80
2022/03/20 10:11:26;;;;;;;30.03;23.03;;;7.00;99.90;;;;;;6187918;23;20464;-80
2022/03/20 10:14:32;;;;;;;29.40;23.97;;;7.00;99.90;;;;;;6189594;23;20602;-81
2022/03/20 10:17:06;;;;;;;32.53;23.90;;;7.00;1.00;;;;;;6133775;23;20158;-83
2022/03/20 10:19:32;;;;;;;29.43;23.70;;;7.10;1.00;;;;;;6202407;23;20188;-81
2022/03/20 10:22:07;;;;;;;27.87;23.60;;;7.50;1.00;;;;;;6201321;23;20134;-82
2022/03/20 10:24:39;;;;;;;28.67;23.97;;;7.80;99.90;;;;;;6177235;23;20142;-82
2022/03/20 10:27:30;;;;;;;27.60;22.53;;;8.10;99.90;;;;;;6206394;23;20141;-82
2022/03/20 10:30:24;;;;;;;26.33;22.23;;;8.30;99.90;;;;;;6209907;23;20184;-80
2022/03/20 10:32:55;;;;;;;27.03;23.17;;;8.40;99.90;;;;;;6206114;23;20153;-79
2022/03/20 10:35:21;;;;;;;25.23;21.87;;;8.50;1.00;;;;;;6178366;23;20236;-81
2022/03/20 10:37:56;;;;;;;28.00;23.17;;;8.40;99.90;;;;;;6174618;23;20177;-84
2022/03/20 10:40:28;;;;;;;25.17;22.47;;;8.10;99.90;;;;;;6175489;23;20150;-81
2022/03/20 10:43:16;;;;;;;30.77;23.77;;;8.10;1.00;;;;;;6172522;23;20158;-82
2022/03/20 10:46:00;;;;;;;26.00;22.97;;;8.40;99.90;;;;;;6199531;23;20450;-82
2022/03/20 10:48:34;;;;;;;28.17;23.50;;;8.50;99.90;;;;;;6180717;23;20213;-82
2022/03/20 10:51:01;;;;;;;27.17;22.43;;;8.60;57.10;;;;;;6204494;23;20141;-84
2022/03/20 10:53:26;;;;;;;25.20;22.53;;;9.10;1.00;;;;;;6176486;23;20173;-83
2022/03/20 10:56:04;;;;;;;28.00;22.53;;;9.30;1.00;;;;;;6200991;23;20197;-80
2022/03/20 10:58:29;;;;;;;25.70;22.20;;;8.90;99.90;;;;;;6202433;23;20173;-81
2022/03/20 11:00:57;;;;;;;24.70;22.10;;;8.80;99.90;;;;;;6199661;23;20226;-84
2022/03/20 11:03:23;;;;;;;27.70;22.40;;;9.10;99.90;;;;;;6195538;23;20507;-84
2022/03/20 11:05:57;;;;;;;29.50;21.97;;;9.30;1.00;;;;;;6171750;23;20197;-81
2022/03/20 11:08:25;;;;;;;25.67;21.80;;;9.50;99.90;;;;;;6173555;23;20162;-81
2022/03/20 11:10:56;;;;;;;26.37;22.37;;;9.50;99.90;;;;;;6205833;23;20165;-84
2022/03/20 11:13:28;;;;;;;27.07;21.60;;;9.60;99.90;;;;;;6180829;23;20489;-82
2022/03/20 11:15:59;;;;;;;24.57;21.87;;;9.70;99.90;;;;;;6205807;23;20150;-83
2022/03/20 11:18:32;;;;;;;24.17;21.57;;;9.80;99.90;;;;;;6179848;23;20619;-82
2022/03/20 11:21:02;;;;;;;25.43;21.73;;;9.80;72.90;;;;;;6178886;23;20150;-83
2022/03/20 11:23:30;;;;;;;25.60;22.87;;;9.70;99.90;;;;;;6174162;23;20208;-84
2022/03/20 11:26:02;;;;;;;24.40;21.80;;;9.90;90.50;;;;;;6168048;23;20149;-82
2022/03/20 11:28:35;;;;;;;26.73;22.73;;;9.90;30.10;;;;;;6211492;22;20118;-79
2022/03/20 11:31:01;;;;;;;24.43;21.83;;;9.90;54.40;;;;;;6184002;23;20157;-82
2022/03/20 11:33:30;;;;;;;28.30;23.43;;;10.10;1.00;;;;;;6203962;23;20205;-82
2022/03/20 11:35:59;;;;;;;25.40;22.70;;;10.10;23.20;;;;;;6205081;23;20142;-82
2022/03/20 11:38:25;;;;;;;27.30;23.67;;;10.10;32.40;;;;;;6205621;23;20507;-83
2022/03/20 11:41:23;;;;;;;25.47;22.77;;;9.90;29.10;;;;;;6204969;23;20153;-81
2022/03/20 11:44:14;;;;;;;26.13;22.23;;;9.80;73.20;;;;;;6213825;22;20123;-82
2022/03/20 11:46:43;;;;;;;27.27;22.80;;;9.50;99.90;;;;;;6209100;23;20188;-79
2022/03/20 11:49:22;;;;;;;27.87;23.23;;;9.50;99.90;;;;;;6174833;23;20169;-83
2022/03/20 11:52:10;;;;;;;28.27;23.67;;;9.50;99.90;;;;;;6203475;23;20137;-82
2022/03/20 11:54:42;;;;;;;27.67;23.97;;;9.50;99.90;;;;;;6199537;23;20135;-80
2022/03/20 11:57:29;;;;;;;26.30;23.10;;;9.40;99.90;;;;;;6164629;23;20138;-83
2022/03/20 12:00:10;;;;;;;25.50;22.80;;;9.50;99.90;;;;;;6189626;23;20138;-83
2022/03/20 12:02:50;;;;;;;26.23;23.13;;;9.60;99.90;;;;;;6193227;23;20586;-82
2022/03/20 12:05:41;;;;;;;26.83;23.97;;;9.80;99.90;;;;;;6202015;23;20169;-82
2022/03/20 12:08:44;;;;;;;27.50;24.40;;;9.80;46.20;;;;;;6196935;23;20133;-83
2022/03/20 12:11:34;;;;;;;25.70;22.97;;;9.90;46.90;;;;;;6199839;23;20280;-79
2022/03/20 12:14:18;;;;;;;28.90;23.97;;;10.00;1.00;;;;;;6196124;23;20138;-82
2022/03/20 12:16:53;;;;;;;27.67;23.97;;;10.00;1.00;;;;;;6196556;23;20138;-82
2022/03/20 12:19:21;;;;;;;27.83;23.83;;;10.00;1.00;;;;;;6196983;23;20177;-83
2022/03/20 12:21:59;;;;;;;26.53;23.77;;;10.00;1.00;;;;;;6193757;23;20224;-83
2022/03/20 12:24:53;;;;;;;25.10;22.40;;;10.10;1.00;;;;;;6193802;23;20161;-83
2022/03/20 12:27:29;;;;;;;25.83;23.10;;;10.30;1.00;;;;;;6203653;23;20161;-82
2022/03/20 12:29:54;;;;;;;26.87;23.97;;;10.30;1.00;;;;;;6204913;23;20139;-83
2022/03/20 12:32:24;;;;;;;25.70;22.83;;;10.20;1.00;;;;;;6197907;23;20479;-82
2022/03/20 12:34:56;;;;;;;26.17;22.47;;;10.20;1.00;;;;;;6169108;23;20141;-85
2022/03/20 12:37:28;;;;;;;27.00;22.63;;;10.10;1.00;;;;;;6195238;23;20221;-81
2022/03/20 12:40:03;;;;;;;25.57;22.73;;;10.10;1.00;;;;;;6195294;23;20213;-83
2022/03/20 12:42:31;;;;;;;25.40;22.57;;;10.00;1.00;;;;;;6197612;23;20149;-82
2022/03/20 12:45:00;;;;;;;26.67;23.30;;;10.00;1.00;;;;;;6200232;23;20150;-83
2022/03/20 12:47:28;;;;;;;25.67;22.93;;;10.10;3.70;;;;;;6174429;23;20173;-81
2022/03/20 12:50:09;;;;;;;26.63;23.57;;;10.10;81.20;;;;;;6201515;23;20133;-82
2022/03/20 12:52:38;;;;;;;25.70;23.00;;;10.20;66.40;;;;;;6198915;23;20130;-83
2022/03/20 12:55:10;;;;;;;25.90;23.00;;;10.30;99.90;;;;;;6169679;23;20146;-83
2022/03/20 12:57:47;;;;;;;25.57;22.83;;;10.20;1.00;;;;;;6171866;23;20166;-81
2022/03/20 13:00:19;;;;;;;25.80;23.00;;;10.00;1.00;;;;;;6196541;23;20200;-82
2022/03/20 13:02:58;;;;;;;26.77;23.73;;;9.90;1.00;;;;;;6202507;23;20198;-82
2022/03/20 13:05:31;;;;;;;26.93;24.10;;;9.80;50.10;;;;;;6202440;23;20209;-82
2022/03/20 13:07:58;;;;;;;28.07;24.53;;;9.60;99.90;;;;;;6175604;23;20205;-82
2022/03/20 13:10:30;;;;;;;28.37;25.30;;;9.30;99.90;;;;;;6198067;23;20142;-83
2022/03/20 13:12:58;;;;;;;30.03;26.37;;;9.20;99.90;;;;;;6173029;23;20150;-79
2022/03/20 13:15:42;;;;;;;28.70;25.00;;;9.30;1.00;;;;;;6202467;23;20130;-82
2022/03/20 13:18:09;;;;;;;29.50;26.30;;;9.50;99.90;;;;;;6180661;23;20181;-83
2022/03/20 13:20:41;;;;;;;28.60;25.53;;;9.40;99.90;;;;;;6179314;23;20618;-82
2022/03/20 13:23:11;;;;;;;30.37;27.23;;;9.40;99.90;;;;;;6203383;23;20145;-82
2022/03/20 13:25:40;;;;;;;29.83;26.03;;;9.40;99.90;;;;;;6177268;23;20146;-81
2022/03/20 13:28:28;;;;;;;29.83;26.37;;;9.50;99.90;;;;;;6155294;23;20477;-82
2022/03/20 13:31:03;;;;;;;31.70;26.60;;;9.50;99.90;;;;;;6208391;23;20141;-81
2022/03/20 13:33:45;;;;;;;34.10;28.17;;;9.20;99.90;;;;;;6213134;23;20145;-82